Time;durP1;ratioP1;P1;durP2;ratioP2;P2;SDS_P1;SDS_P2;PMS_P1;PMS_P2;Temp;Humidity;BMP_temperature;BMP_pressure;BME280_temperature;BME280_humidity;BME280_pressure;Samples;Min_cycle;Max_cycle;Signal;HPM_P1;HPM_P2
2022/08/24 00:00:50;;;;;;;58.22;55.15;;;23.40;72.90;;;;;;5051051;28;20043;-78
2022/08/24 00:03:16;;;;;;;58.28;55.33;;;23.30;72.70;;;;;;5033194;28;20037;-78
2022/08/24 00:05:43;;;;;;;56.15;53.22;;;23.30;72.80;;;;;;5049646;28;20383;-78
2022/08/24 00:08:09;;;;;;;57.05;53.97;;;23.30;73.00;;;;;;5033697;28;20048;-78
2022/08/24 00:10:35;;;;;;;55.45;52.65;;;23.30;73.10;;;;;;5051132;28;20028;-78
2022/08/24 00:13:01;;;;;;;54.13;51.42;;;23.30;73.30;;;;;;5049788;28;20378;-78
2022/08/24 00:15:27;;;;;;;52.38;49.75;;;23.20;73.30;;;;;;5049672;28;20037;-78
2022/08/24 00:17:53;;;;;;;53.00;50.30;;;23.20;73.30;;;;;;5049678;28;20029;-78
2022/08/24 00:20:19;;;;;;;56.10;53.08;;;23.20;74.10;;;;;;5051303;28;20382;-78
2022/08/24 00:22:45;;;;;;;56.13;53.15;;;23.20;73.70;;;;;;5051502;28;20029;-79
2022/08/24 00:25:12;;;;;;;54.22;51.50;;;23.30;73.10;;;;;;5049890;28;20033;-79
2022/08/24 00:27:38;;;;;;;54.33;51.53;;;23.30;73.10;;;;;;5049665;28;20044;-78
2022/08/24 00:30:09;;;;;;;54.50;51.75;;;23.20;73.10;;;;;;5032572;28;20037;-79
2022/08/24 00:32:36;;;;;;;47.08;44.58;;;23.20;73.60;;;;;;5033025;28;20053;-78
2022/08/24 00:35:04;;;;;;;47.03;44.53;;;22.80;76.00;;;;;;5049684;28;20458;-78
2022/08/24 00:37:30;;;;;;;47.75;45.17;;;22.80;76.30;;;;;;5033291;28;20037;-78
2022/08/24 00:39:56;;;;;;;50.47;47.83;;;22.70;77.20;;;;;;5016410;28;20033;-78
2022/08/24 00:42:23;;;;;;;50.75;47.97;;;22.50;78.10;;;;;;5049397;28;20474;-78
2022/08/24 00:44:49;;;;;;;54.45;51.65;;;22.50;77.50;;;;;;5056646;28;20033;-78
2022/08/24 00:47:22;;;;;;;56.50;53.53;;;22.50;77.10;;;;;;5052380;28;20065;-79
2022/08/24 00:50:13;;;;;;;54.78;51.97;;;22.50;76.90;;;;;;5016693;28;20402;-78
2022/08/24 00:52:41;;;;;;;57.40;54.33;;;22.50;76.60;;;;;;5049608;28;20044;-78
2022/08/24 00:55:29;;;;;;;55.70;52.90;;;22.60;76.40;;;;;;5016494;28;20036;-78
2022/08/24 00:58:15;;;;;;;56.78;53.80;;;22.60;76.30;;;;;;5018972;28;20885;-79
2022/08/24 01:00:44;;;;;;;58.60;55.45;;;22.60;76.00;;;;;;5033583;28;20477;-78
2022/08/24 01:03:10;;;;;;;57.35;54.50;;;22.60;75.90;;;;;;5049156;28;20096;-78
2022/08/24 01:05:36;;;;;;;55.10;52.17;;;22.60;75.90;;;;;;5049518;28;20028;-78
2022/08/24 01:08:05;;;;;;;56.25;53.28;;;22.60;75.70;;;;;;5051261;28;20025;-78
2022/08/24 01:10:32;;;;;;;49.45;46.80;;;22.60;75.60;;;;;;5053358;28;20024;-78
2022/08/24 01:13:00;;;;;;;44.75;42.35;;;22.60;75.50;;;;;;5052783;28;20044;-78
2022/08/24 01:15:29;;;;;;;41.97;39.78;;;22.60;75.60;;;;;;5052560;28;20473;-78
2022/08/24 01:20:42;;;;;;;36.47;34.47;;;22.70;76.00;;;;;;5059053;28;20040;-78
2022/08/24 01:23:33;;;;;;;36.90;34.97;;;22.70;76.60;;;;;;5036569;28;20039;-78
2022/08/24 01:25:59;;;;;;;47.90;45.28;;;22.60;75.60;;;;;;5036096;28;20047;-78
2022/08/24 01:28:25;;;;;;;50.80;48.00;;;22.60;75.60;;;;;;5036391;28;20033;-78
2022/08/24 01:30:51;;;;;;;52.08;49.03;;;22.60;75.90;;;;;;5052108;28;20041;-78
2022/08/24 01:33:23;;;;;;;57.75;54.50;;;22.60;76.00;;;;;;5054169;28;20029;-78
2022/08/24 01:35:49;;;;;;;63.60;60.28;;;22.50;75.90;;;;;;5032651;28;20037;-78
2022/08/24 01:38:16;;;;;;;59.08;55.92;;;22.50;75.90;;;;;;5032597;28;20061;-78
2022/08/24 01:40:46;;;;;;;54.80;51.95;;;22.60;76.00;;;;;;5021276;28;20386;-78
2022/08/24 01:43:13;;;;;;;40.83;38.50;;;22.60;76.20;;;;;;5032875;28;20025;-78
2022/08/24 01:45:40;;;;;;;38.05;36.03;;;22.60;76.60;;;;;;5055810;28;20032;-78
2022/08/24 01:48:06;;;;;;;44.95;42.65;;;22.60;75.80;;;;;;5035916;28;20045;-78
2022/08/24 01:50:32;;;;;;;56.60;53.47;;;22.50;75.60;;;;;;5036105;28;20375;-78
2022/08/24 01:53:01;;;;;;;52.85;50.08;;;22.50;76.50;;;;;;5052699;28;20465;-78
2022/08/24 01:55:27;;;;;;;60.72;57.63;;;22.40;75.80;;;;;;5036207;28;20036;-78
2022/08/24 01:57:53;;;;;;;64.40;61.03;;;22.40;75.90;;;;;;5052447;28;20382;-78
2022/08/24 02:00:19;;;;;;;62.85;59.58;;;22.40;75.90;;;;;;5051693;28;20033;-78
2022/08/24 02:02:46;;;;;;;60.35;57.28;;;22.40;75.90;;;;;;5052370;28;20025;-78
2022/08/24 02:05:12;;;;;;;63.65;60.33;;;22.30;75.80;;;;;;5051701;28;20041;-78
2022/08/24 02:07:38;;;;;;;70.07;66.55;;;22.30;75.80;;;;;;5052368;28;20497;-78
2022/08/24 02:10:06;;;;;;;62.83;59.65;;;22.30;75.80;;;;;;5035497;28;20048;-78
2022/08/24 02:12:33;;;;;;;61.78;58.60;;;22.30;76.00;;;;;;5051997;28;20029;-78
2022/08/24 02:15:01;;;;;;;70.10;66.47;;;22.30;76.00;;;;;;5035016;28;20033;-78
2022/08/24 02:17:28;;;;;;;66.32;62.95;;;22.20;75.90;;;;;;5051604;28;20029;-78
2022/08/24 02:19:54;;;;;;;66.32;62.95;;;22.20;76.00;;;;;;5053423;28;20021;-78
2022/08/24 02:22:20;;;;;;;67.55;64.00;;;22.20;76.10;;;;;;5052044;28;20029;-78
2022/08/24 02:24:46;;;;;;;59.47;56.13;;;22.20;76.50;;;;;;5053122;28;20462;-78
2022/08/24 02:27:13;;;;;;;39.72;37.65;;;22.30;76.70;;;;;;5051934;28;20036;-78
2022/08/24 02:29:39;;;;;;;44.00;41.67;;;22.30;76.10;;;;;;5034891;28;20041;-78
2022/08/24 02:32:06;;;;;;;62.22;58.85;;;22.20;75.90;;;;;;5051313;28;20041;-78
2022/08/24 02:34:32;;;;;;;69.55;65.78;;;22.20;76.00;;;;;;5051806;28;20492;-78
2022/08/24 02:36:58;;;;;;;65.57;62.28;;;22.20;76.20;;;;;;5051702;28;20041;-78
2022/08/24 02:39:25;;;;;;;67.25;63.65;;;22.10;76.10;;;;;;5051685;28;20287;-78
2022/08/24 02:41:51;;;;;;;55.67;52.63;;;22.10;76.10;;;;;;5034882;28;20044;-78
2022/08/24 02:44:17;;;;;;;51.58;48.88;;;22.10;76.00;;;;;;5045973;28;20084;-78
2022/08/24 02:46:43;;;;;;;52.15;49.50;;;22.10;75.90;;;;;;5055008;28;20045;-78
2022/08/24 02:49:09;;;;;;;52.08;49.20;;;22.00;75.90;;;;;;5051511;28;20032;-78
2022/08/24 02:51:35;;;;;;;61.85;58.63;;;22.00;76.00;;;;;;5035032;28;20399;-77
2022/08/24 02:54:01;;;;;;;63.78;60.35;;;22.00;75.90;;;;;;5034644;28;20040;-78
2022/08/24 02:56:29;;;;;;;66.57;63.22;;;22.00;75.90;;;;;;5051335;28;20025;-78
2022/08/24 02:58:56;;;;;;;62.22;58.90;;;21.90;76.10;;;;;;5017902;28;20486;-78
2022/08/24 03:01:22;;;;;;;63.30;59.65;;;21.90;76.30;;;;;;5034000;28;20040;-78
2022/08/24 03:03:48;;;;;;;56.53;53.63;;;21.80;76.30;;;;;;5034489;28;20044;-78
2022/08/24 03:06:14;;;;;;;58.72;55.63;;;21.80;76.30;;;;;;5051293;28;20030;-78
2022/08/24 03:08:41;;;;;;;45.75;43.15;;;21.90;76.60;;;;;;5052430;28;20454;-78
2022/08/24 03:11:07;;;;;;;49.50;46.97;;;21.90;76.30;;;;;;5051040;28;20044;-78
2022/08/24 03:13:33;;;;;;;58.38;55.28;;;21.90;76.00;;;;;;5050605;28;20401;-78
2022/08/24 03:16:00;;;;;;;60.60;57.33;;;21.80;76.20;;;;;;5050457;28;20033;-78
2022/08/24 03:18:26;;;;;;;56.63;53.60;;;21.80;76.40;;;;;;5050906;28;20477;-78
2022/08/24 03:20:53;;;;;;;57.58;54.47;;;21.80;76.50;;;;;;5051016;28;20033;-78
2022/08/24 03:23:19;;;;;;;56.95;54.00;;;21.70;76.50;;;;;;5033736;28;20493;-78
2022/08/24 03:25:45;;;;;;;55.70;52.75;;;21.70;76.50;;;;;;5033977;28;20041;-78
2022/08/24 03:28:11;;;;;;;55.72;52.75;;;21.60;76.40;;;;;;5050456;28;20386;-78
2022/08/24 03:30:38;;;;;;;53.20;50.30;;;21.70;76.50;;;;;;5049665;28;20375;-78
2022/08/24 03:33:05;;;;;;;56.28;53.33;;;21.70;76.30;;;;;;5050463;28;20397;-78
2022/08/24 03:35:32;;;;;;;48.55;45.92;;;21.60;76.20;;;;;;5050496;28;20033;-78
2022/08/24 03:37:59;;;;;;;48.05;45.50;;;21.60;76.30;;;;;;5050442;28;20033;-78
2022/08/24 03:40:25;;;;;;;40.78;38.38;;;21.60;76.30;;;;;;5051557;28;20483;-78
2022/08/24 03:42:51;;;;;;;42.40;40.15;;;21.60;76.30;;;;;;5050114;28;20401;-78
2022/08/24 03:45:17;;;;;;;36.15;34.08;;;21.50;76.20;;;;;;5053222;28;20025;-78
2022/08/24 03:47:44;;;;;;;32.90;31.05;;;21.50;76.10;;;;;;5035651;28;20053;-78
2022/08/24 03:50:10;;;;;;;34.95;33.00;;;21.50;77.10;;;;;;5050545;28;20028;-78
2022/08/24 03:52:36;;;;;;;34.65;32.65;;;21.50;77.30;;;;;;5033902;28;20033;-78
2022/08/24 03:55:03;;;;;;;37.47;35.38;;;21.50;77.30;;;;;;5049878;28;20040;-78
2022/08/24 03:57:29;;;;;;;43.10;40.80;;;21.50;76.40;;;;;;5017487;28;20068;-78
2022/08/24 03:59:56;;;;;;;46.97;44.53;;;21.50;76.50;;;;;;5017130;28;20037;-78
2022/08/24 04:02:22;;;;;;;41.42;39.17;;;21.50;76.70;;;;;;5032991;28;20033;-78
2022/08/24 04:04:48;;;;;;;39.88;37.53;;;21.50;76.70;;;;;;5050239;28;20478;-78
2022/08/24 04:07:14;;;;;;;42.45;40.13;;;21.50;76.60;;;;;;5033728;28;20041;-78
2022/08/24 04:09:40;;;;;;;49.50;46.78;;;21.40;76.30;;;;;;5051051;28;20409;-78
2022/08/24 04:12:06;;;;;;;47.97;45.33;;;21.40;76.50;;;;;;5049902;28;20040;-78
2022/08/24 04:14:33;;;;;;;46.95;44.50;;;21.40;76.60;;;;;;5049757;28;20397;-78
2022/08/24 04:16:59;;;;;;;46.05;43.50;;;21.40;76.60;;;;;;5032735;28;20513;-78
2022/08/24 04:19:26;;;;;;;45.83;43.15;;;21.30;76.60;;;;;;5049470;28;20064;-78
2022/08/24 04:21:52;;;;;;;45.65;43.15;;;21.30;76.70;;;;;;5049937;28;20028;-78
2022/08/24 04:24:19;;;;;;;38.78;36.63;;;21.30;76.60;;;;;;5049640;28;20386;-78
2022/08/24 04:26:45;;;;;;;34.72;32.75;;;21.30;76.50;;;;;;5049947;28;20021;-78
2022/08/24 04:29:12;;;;;;;37.38;35.38;;;21.30;76.40;;;;;;5032948;28;20059;-78
2022/08/24 04:31:38;;;;;;;35.35;33.47;;;21.30;76.40;;;;;;5049144;28;20036;-78
2022/08/24 04:34:05;;;;;;;33.45;31.63;;;21.30;76.30;;;;;;5032955;28;20045;-78
2022/08/24 04:36:31;;;;;;;37.17;35.13;;;21.20;76.20;;;;;;5049506;28;20036;-78
2022/08/24 04:38:57;;;;;;;39.38;37.28;;;21.20;76.40;;;;;;5032072;28;20048;-78
2022/08/24 04:41:25;;;;;;;38.08;36.03;;;21.10;76.50;;;;;;5049723;28;20481;-78
2022/08/24 04:43:51;;;;;;;39.47;37.33;;;21.10;76.50;;;;;;5068085;28;20036;-78
2022/08/24 04:46:17;;;;;;;37.60;35.50;;;21.10;77.00;;;;;;5040659;28;20040;-78
2022/08/24 04:48:44;;;;;;;37.78;35.67;;;21.10;76.60;;;;;;5053817;28;20045;-78
2022/08/24 04:51:11;;;;;;;37.63;35.38;;;21.00;76.60;;;;;;5051473;28;20036;-78
2022/08/24 04:53:38;;;;;;;41.97;39.83;;;21.00;76.70;;;;;;5037090;28;20032;-78
2022/08/24 04:56:08;;;;;;;37.65;35.53;;;21.00;76.80;;;;;;5036973;28;20029;-78
2022/08/24 04:58:34;;;;;;;36.45;34.47;;;21.00;76.70;;;;;;5020582;28;20044;-78
2022/08/24 05:01:01;;;;;;;30.85;29.17;;;21.00;77.60;;;;;;5052936;28;20469;-78
2022/08/24 05:03:27;;;;;;;33.78;32.00;;;21.00;76.90;;;;;;5036675;28;20041;-78
2022/08/24 05:05:53;;;;;;;35.53;33.67;;;21.00;76.70;;;;;;5053477;28;20381;-77
2022/08/24 05:08:19;;;;;;;36.42;34.35;;;21.00;76.70;;;;;;5036397;28;20055;-78
2022/08/24 05:10:46;;;;;;;35.63;33.50;;;21.00;76.80;;;;;;5053436;28;20033;-78
2022/08/24 05:13:13;;;;;;;36.17;34.22;;;20.90;76.90;;;;;;5053506;28;20036;-78
2022/08/24 05:15:44;;;;;;;33.33;31.55;;;20.90;76.80;;;;;;5052873;28;20044;-78
2022/08/24 05:18:10;;;;;;;35.72;33.75;;;20.90;76.90;;;;;;5053354;28;20044;-78
2022/08/24 05:20:44;;;;;;;33.00;31.25;;;20.90;76.80;;;;;;5053075;28;20382;-78
2022/08/24 05:23:10;;;;;;;37.20;35.03;;;20.90;77.00;;;;;;5052746;28;20037;-78
2022/08/24 05:25:37;;;;;;;37.58;35.28;;;20.80;77.00;;;;;;5053238;28;20017;-78
2022/08/24 05:28:04;;;;;;;34.72;32.22;;;20.80;77.10;;;;;;5036524;28;20132;-78
2022/08/24 05:30:30;;;;;;;32.63;30.65;;;20.80;77.00;;;;;;5052587;28;20036;-78
2022/08/24 05:32:56;;;;;;;32.90;30.83;;;20.90;77.10;;;;;;5054320;28;20405;-78
2022/08/24 05:35:22;;;;;;;33.97;32.08;;;20.80;77.10;;;;;;5036371;28;20044;-78
2022/08/24 05:37:48;;;;;;;34.63;32.70;;;20.80;77.20;;;;;;5052139;28;20041;-78
2022/08/24 05:40:16;;;;;;;39.20;37.08;;;20.80;77.30;;;;;;5036369;28;20033;-78
2022/08/24 05:42:42;;;;;;;37.75;35.42;;;20.80;77.40;;;;;;5069288;28;20028;-78
2022/08/24 05:45:09;;;;;;;38.92;36.40;;;20.80;77.50;;;;;;5057316;28;20470;-78
2022/08/24 05:47:35;;;;;;;40.05;37.60;;;20.80;77.60;;;;;;5022648;28;20049;-78
2022/08/24 05:50:01;;;;;;;35.35;32.97;;;20.80;78.00;;;;;;5052458;28;20516;-78
2022/08/24 05:52:28;;;;;;;29.17;27.48;;;20.90;78.20;;;;;;5035125;28;20053;-78
2022/08/24 05:54:56;;;;;;;32.80;30.92;;;21.00;78.50;;;;;;5018904;28;20052;-78
2022/08/24 05:57:22;;;;;;;31.20;29.33;;;21.10;78.70;;;;;;5036104;28;20032;-78
2022/08/24 05:59:49;;;;;;;35.97;33.97;;;21.20;78.80;;;;;;5036197;28;20029;-78
2022/08/24 06:02:16;;;;;;;47.40;44.72;;;21.50;78.50;;;;;;5035537;28;20048;-78
2022/08/24 06:04:42;;;;;;;50.53;47.75;;;21.60;77.80;;;;;;5035638;28;20040;-78
2022/08/24 06:07:09;;;;;;;56.78;53.72;;;21.80;77.80;;;;;;5034381;28;20489;-78
2022/08/24 06:09:35;;;;;;;58.08;54.97;;;22.00;77.50;;;;;;5035901;28;20037;-78
2022/08/24 06:12:01;;;;;;;45.65;43.10;;;22.20;77.20;;;;;;5035263;28;20053;-78
2022/08/24 06:14:27;;;;;;;49.17;46.45;;;22.30;76.60;;;;;;5052407;28;20032;-78
2022/08/24 06:16:54;;;;;;;51.40;48.50;;;22.60;75.80;;;;;;5051707;28;20029;-78
2022/08/24 06:19:20;;;;;;;51.10;47.90;;;22.90;74.50;;;;;;5052402;28;20048;-78
2022/08/24 06:21:48;;;;;;;51.05;47.88;;;22.90;73.30;;;;;;5051763;28;20032;-78
2022/08/24 06:24:14;;;;;;;46.85;44.42;;;23.00;73.20;;;;;;5035519;28;20040;-78
2022/08/24 06:29:26;;;;;;;43.55;41.10;;;23.10;73.00;;;;;;5059005;28;20043;-78
2022/08/24 06:31:53;;;;;;;48.25;45.70;;;23.20;73.00;;;;;;5032520;28;20037;-78
2022/08/24 06:34:19;;;;;;;46.10;43.67;;;23.10;73.30;;;;;;5035348;28;20052;-78
2022/08/24 06:36:46;;;;;;;45.15;42.20;;;22.90;74.00;;;;;;5034013;28;20395;-78
2022/08/24 06:39:12;;;;;;;49.90;47.20;;;22.90;74.40;;;;;;5051709;28;20465;-78
2022/08/24 06:41:39;;;;;;;54.85;52.00;;;22.80;74.60;;;;;;5051193;28;20044;-78
2022/08/24 06:44:05;;;;;;;55.70;52.70;;;22.90;74.90;;;;;;5031615;28;20052;-78
2022/08/24 06:46:32;;;;;;;55.05;52.17;;;23.20;74.20;;;;;;5055153;28;20041;-78
2022/08/24 06:48:58;;;;;;;51.63;48.75;;;23.20;74.20;;;;;;5034882;28;20466;-78
2022/08/24 06:51:24;;;;;;;48.90;46.05;;;23.30;74.00;;;;;;5034284;28;20037;-78
2022/08/24 06:53:50;;;;;;;49.95;47.45;;;23.40;73.40;;;;;;5052606;28;20051;-78
2022/08/24 06:56:16;;;;;;;51.05;48.15;;;23.60;73.10;;;;;;5018436;28;20497;-78
2022/08/24 06:58:43;;;;;;;52.58;49.97;;;23.50;73.10;;;;;;5051340;28;20486;-77
2022/08/24 07:01:14;;;;;;;54.90;52.08;;;23.70;72.70;;;;;;5050493;28;20470;-78
2022/08/24 07:03:40;;;;;;;62.90;59.90;;;23.80;72.50;;;;;;5034208;28;20496;-78
2022/08/24 07:06:07;;;;;;;63.28;60.00;;;23.90;72.10;;;;;;5050316;28;20025;-78
2022/08/24 07:08:33;;;;;;;61.85;58.72;;;24.10;71.70;;;;;;5051238;28;20382;-78
2022/08/24 07:10:59;;;;;;;66.72;63.40;;;24.20;71.00;;;;;;5051228;28;20036;-78
2022/08/24 07:13:25;;;;;;;66.90;63.63;;;24.30;71.10;;;;;;5034478;28;20052;-78
2022/08/24 07:15:51;;;;;;;71.72;68.28;;;24.50;69.70;;;;;;5050458;28;20405;-78
2022/08/24 07:18:18;;;;;;;75.88;71.78;;;24.60;69.90;;;;;;5050796;28;20021;-78
2022/08/24 07:20:44;;;;;;;77.20;73.50;;;24.80;69.00;;;;;;5050953;28;20029;-78
2022/08/24 07:23:13;;;;;;;74.50;70.60;;;24.90;68.10;;;;;;5051999;28;20033;-78
2022/08/24 07:25:40;;;;;;;60.38;57.30;;;24.90;67.80;;;;;;5052008;28;20386;-78
2022/08/24 07:28:07;;;;;;;57.97;54.95;;;25.00;67.30;;;;;;5050821;28;20028;-78
2022/08/24 07:30:33;;;;;;;54.63;51.92;;;25.10;66.80;;;;;;5050407;28;20025;-78
2022/08/24 07:32:59;;;;;;;62.15;59.10;;;25.00;66.90;;;;;;5050496;28;20386;-78
2022/08/24 07:35:26;;;;;;;64.22;61.03;;;24.90;67.60;;;;;;5050529;28;20029;-78
2022/08/24 07:37:54;;;;;;;62.55;59.08;;;25.10;67.50;;;;;;5017531;28;20049;-78
2022/08/24 07:40:21;;;;;;;64.50;61.33;;;25.10;67.10;;;;;;5050467;28;20029;-78
2022/08/24 07:42:48;;;;;;;55.55;52.83;;;25.20;66.70;;;;;;5050900;28;20382;-78
2022/08/24 07:45:14;;;;;;;59.90;56.90;;;25.30;66.20;;;;;;5038731;28;20021;-78
2022/08/24 07:47:41;;;;;;;57.15;54.03;;;25.40;66.50;;;;;;5052311;28;20052;-78
2022/08/24 07:50:07;;;;;;;54.42;51.50;;;25.50;65.60;;;;;;5050468;28;20025;-78
2022/08/24 07:52:33;;;;;;;59.58;56.33;;;25.40;65.80;;;;;;5033572;28;20478;-78
2022/08/24 07:55:01;;;;;;;59.20;56.10;;;25.50;65.50;;;;;;5050457;28;20505;-78
2022/08/24 07:57:27;;;;;;;57.80;54.60;;;25.60;65.20;;;;;;5033614;28;20021;-78
2022/08/24 07:59:53;;;;;;;54.65;51.70;;;25.80;64.60;;;;;;5034397;28;20040;-78
2022/08/24 08:02:19;;;;;;;53.88;50.83;;;25.80;64.10;;;;;;5016310;28;20047;-79
2022/08/24 08:04:45;;;;;;;51.58;48.72;;;25.90;63.60;;;;;;5050112;28;20386;-79
2022/08/24 08:07:13;;;;;;;51.15;48.20;;;26.10;63.90;;;;;;5049987;28;20032;-78
2022/08/24 08:09:39;;;;;;;57.03;54.03;;;26.10;63.30;;;;;;5033741;28;20048;-79
2022/08/24 08:12:06;;;;;;;51.95;49.17;;;26.20;63.30;;;;;;5033211;28;20041;-79
2022/08/24 08:14:32;;;;;;;47.42;44.88;;;26.40;62.50;;;;;;5050033;28;20029;-78
2022/08/24 08:16:58;;;;;;;46.88;44.58;;;26.40;62.30;;;;;;5049164;28;20082;-79
2022/08/24 08:19:25;;;;;;;49.53;46.72;;;26.60;61.60;;;;;;5050011;28;20048;-78
2022/08/24 08:24:39;;;;;;;55.80;52.78;;;26.70;60.80;;;;;;5054351;28;20120;-78
2022/08/24 08:27:05;;;;;;;59.60;56.65;;;26.80;60.40;;;;;;5049743;28;20497;-78
2022/08/24 08:29:32;;;;;;;49.15;46.65;;;26.70;60.30;;;;;;5033193;28;20064;-78
2022/08/24 08:31:59;;;;;;;50.13;47.72;;;26.80;60.40;;;;;;5048847;28;20029;-78
2022/08/24 08:34:25;;;;;;;39.70;37.63;;;26.80;59.60;;;;;;5049931;28;20385;-78
2022/08/24 08:36:52;;;;;;;48.20;45.67;;;27.00;59.30;;;;;;5049599;28;20037;-79
2022/08/24 08:39:19;;;;;;;38.63;36.72;;;27.20;60.20;;;;;;5032730;28;20041;-79
2022/08/24 08:41:58;;;;;;;46.13;43.67;;;27.50;58.70;;;;;;5066339;28;20374;-79
2022/08/24 08:44:43;;;;;;;47.35;45.05;;;27.60;58.70;;;;;;5043613;28;20037;-79
2022/08/24 08:47:42;;;;;;;42.90;40.80;;;27.80;58.40;;;;;;5069588;28;20390;-79
2022/08/24 08:50:20;;;;;;;40.00;37.83;;;28.00;57.70;;;;;;5033024;28;20037;-79
2022/08/24 08:53:02;;;;;;;40.20;38.30;;;28.20;56.70;;;;;;5049333;28;20393;-78
2022/08/24 08:55:52;;;;;;;44.60;42.40;;;28.30;56.00;;;;;;5050975;28;20028;-79
2022/08/24 08:58:37;;;;;;;45.05;42.55;;;28.40;55.80;;;;;;5050860;28;20470;-78
2022/08/24 09:01:09;;;;;;;44.88;42.78;;;28.40;55.70;;;;;;5048204;28;20616;-79
2022/08/24 09:03:50;;;;;;;45.90;43.70;;;28.60;54.90;;;;;;5050688;28;20029;-79
2022/08/24 09:06:53;;;;;;;49.25;46.67;;;28.60;55.10;;;;;;5050827;28;20029;-79
2022/08/24 09:09:47;;;;;;;46.40;44.03;;;28.70;54.60;;;;;;5050774;28;20064;-79
2022/08/24 09:12:34;;;;;;;46.33;44.10;;;28.90;54.10;;;;;;5050575;28;20063;-79
2022/08/24 09:15:28;;;;;;;48.10;45.75;;;28.90;53.60;;;;;;5050398;28;20037;-79
2022/08/24 09:17:57;;;;;;;50.38;48.00;;;29.00;54.20;;;;;;5048823;28;20033;-79
2022/08/24 09:20:35;;;;;;;49.55;47.17;;;29.00;53.60;;;;;;5049526;28;20043;-79
2022/08/24 09:23:17;;;;;;;53.67;51.00;;;29.00;53.80;;;;;;5049273;28;20045;-79
2022/08/24 09:25:57;;;;;;;46.13;43.90;;;29.20;53.70;;;;;;5032381;28;20091;-79
2022/08/24 09:28:32;;;;;;;50.03;47.63;;;29.30;53.10;;;;;;5049991;28;20029;-79
2022/08/24 09:31:28;;;;;;;49.45;47.05;;;29.30;52.90;;;;;;5053843;28;20037;-79
2022/08/24 09:34:25;;;;;;;63.22;60.03;;;29.40;52.70;;;;;;5038482;28;20049;-79
2022/08/24 09:36:52;;;;;;;51.03;48.47;;;29.60;52.40;;;;;;5053128;28;20045;-79
2022/08/24 09:39:46;;;;;;;58.65;55.85;;;29.60;52.40;;;;;;5032857;28;20045;-79
2022/08/24 09:42:27;;;;;;;47.60;45.30;;;29.60;52.50;;;;;;5034119;28;20029;-79
2022/08/24 09:45:15;;;;;;;54.50;51.90;;;29.60;52.30;;;;;;5042612;28;20385;-79
2022/08/24 09:47:59;;;;;;;47.45;45.17;;;29.70;52.70;;;;;;5054097;28;20453;-79
2022/08/24 09:50:43;;;;;;;46.47;44.08;;;29.80;52.00;;;;;;5054061;28;20040;-78
2022/08/24 09:53:34;;;;;;;53.67;51.08;;;29.60;52.50;;;;;;5053659;28;20048;-79
2022/08/24 09:56:07;;;;;;;52.15;49.65;;;29.60;52.90;;;;;;5035665;28;20040;-79
2022/08/24 09:58:56;;;;;;;59.00;56.13;;;29.70;52.40;;;;;;5035243;28;20033;-79
2022/08/24 10:02:09;;;;;;;49.97;47.58;;;29.80;52.40;;;;;;5053166;28;20037;-79
2022/08/24 10:05:22;;;;;;;61.45;58.55;;;29.90;52.20;;;;;;5036045;28;20029;-79
2022/08/24 10:08:04;;;;;;;56.60;53.88;;;30.20;52.10;;;;;;5035884;28;20402;-79
2022/08/24 10:10:58;;;;;;;48.97;46.38;;;30.50;51.80;;;;;;5052352;28;20021;-79
2022/08/24 10:13:38;;;;;;;51.75;49.05;;;30.60;50.80;;;;;;5051657;28;20053;-79
2022/08/24 10:16:23;;;;;;;47.95;45.65;;;30.60;50.70;;;;;;5034831;28;20029;-79
2022/08/24 10:18:55;;;;;;;46.78;44.55;;;30.50;50.40;;;;;;5052254;28;20120;-79
2022/08/24 10:22:03;;;;;;;48.42;46.05;;;30.40;50.50;;;;;;5052149;28;20032;-78
2022/08/24 10:24:39;;;;;;;49.83;47.42;;;30.20;50.50;;;;;;5033947;28;20033;-79
2022/08/24 10:27:17;;;;;;;49.53;47.05;;;30.30;50.80;;;;;;5050231;28;20025;-79
2022/08/24 10:30:02;;;;;;;48.50;46.15;;;30.40;50.60;;;;;;5051000;28;20033;-79
2022/08/24 10:33:06;;;;;;;49.47;47.08;;;30.50;50.30;;;;;;5033280;28;20164;-79
2022/08/24 10:36:10;;;;;;;53.47;50.90;;;30.40;50.20;;;;;;4999843;28;20062;-79
2022/08/24 10:41:55;;;;;;;50.92;48.47;;;30.50;50.10;;;;;;4986897;28;20049;-79
2022/08/24 10:44:39;;;;;;;53.20;50.70;;;30.60;50.00;;;;;;4989741;28;20070;-79
2022/08/24 10:47:37;;;;;;;48.58;46.15;;;30.80;49.90;;;;;;4997560;28;20070;-79
2022/08/24 10:50:19;;;;;;;52.53;49.92;;;30.80;49.30;;;;;;4990141;28;20090;-79
2022/08/24 10:52:57;;;;;;;45.88;43.67;;;31.00;48.60;;;;;;4991045;28;20042;-79
2022/08/24 10:55:28;;;;;;;53.38;50.47;;;30.90;48.50;;;;;;4990905;28;20053;-79
2022/08/24 10:58:40;;;;;;;48.17;45.72;;;30.80;49.10;;;;;;5007099;28;20026;-79
2022/08/24 11:01:22;;;;;;;45.78;43.45;;;30.80;48.80;;;;;;4961222;28;20023;-79
2022/08/24 11:03:53;;;;;;;51.33;48.83;;;30.60;48.90;;;;;;4955468;28;20026;-78
2022/08/24 11:06:20;;;;;;;51.63;48.92;;;30.70;48.70;;;;;;4955948;28;20046;-79
2022/08/24 11:09:13;;;;;;;49.55;47.10;;;30.80;49.30;;;;;;4971444;28;20512;-79
2022/08/24 11:11:49;;;;;;;50.67;48.28;;;30.90;48.70;;;;;;4985686;28;20371;-79
2022/08/24 11:14:15;;;;;;;45.95;43.65;;;30.90;48.60;;;;;;5051324;28;20045;-79
2022/08/24 11:16:43;;;;;;;44.70;42.53;;;30.90;48.60;;;;;;5066992;28;20413;-79
2022/08/24 11:19:26;;;;;;;51.72;48.83;;;30.90;48.00;;;;;;5034582;28;20067;-79
2022/08/24 11:21:56;;;;;;;73.82;70.18;;;30.90;48.50;;;;;;5050973;28;20029;-79
2022/08/24 11:24:25;;;;;;;52.55;50.05;;;31.00;48.50;;;;;;5034273;28;20033;-79
2022/08/24 11:26:57;;;;;;;52.30;49.80;;;31.20;47.70;;;;;;5051993;28;20120;-79
2022/08/24 11:29:30;;;;;;;51.13;48.63;;;31.30;48.00;;;;;;5051004;28;20029;-79
2022/08/24 11:31:57;;;;;;;56.33;53.58;;;31.50;46.80;;;;;;5033594;28;20048;-79
2022/08/24 11:34:35;;;;;;;56.38;53.10;;;31.40;47.30;;;;;;5034023;28;20041;-79
2022/08/24 11:37:02;;;;;;;53.30;50.67;;;31.30;47.10;;;;;;5050522;28;20025;-78
2022/08/24 11:39:34;;;;;;;60.17;57.25;;;31.30;47.30;;;;;;5030177;28;20045;-79
2022/08/24 11:42:12;;;;;;;51.78;49.22;;;31.50;47.10;;;;;;5030661;28;20493;-79
2022/08/24 11:45:00;;;;;;;50.85;48.25;;;31.60;46.50;;;;;;5043289;28;20048;-79
2022/08/24 11:48:14;;;;;;;50.78;48.35;;;31.60;46.30;;;;;;5054622;28;20044;-79
2022/08/24 11:50:46;;;;;;;53.25;50.67;;;31.50;46.40;;;;;;5029102;28;20038;-79
2022/08/24 11:53:18;;;;;;;55.05;52.20;;;31.60;46.40;;;;;;5029286;28;20479;-79
2022/08/24 11:56:02;;;;;;;48.85;46.53;;;31.50;45.70;;;;;;5029013;28;20053;-79
2022/08/24 11:58:52;;;;;;;51.90;49.30;;;31.50;45.40;;;;;;5029282;28;20030;-79
2022/08/24 12:01:34;;;;;;;50.60;48.17;;;31.60;45.10;;;;;;5028210;28;20136;-79
2022/08/24 12:04:37;;;;;;;50.55;48.15;;;31.60;45.30;;;;;;5012865;28;20085;-79
2022/08/24 12:07:24;;;;;;;49.05;46.60;;;31.70;44.90;;;;;;5029137;28;20033;-79
2022/08/24 12:10:09;;;;;;;58.22;55.42;;;31.70;45.20;;;;;;5028933;28;20048;-79
2022/08/24 12:12:37;;;;;;;44.88;42.78;;;31.80;44.90;;;;;;5012089;28;20045;-79
2022/08/24 12:15:43;;;;;;;47.50;45.25;;;31.80;44.50;;;;;;5011923;28;20065;-79
2022/08/24 12:18:29;;;;;;;52.17;49.25;;;32.00;44.50;;;;;;4951206;29;20027;-79
2022/08/24 12:20:56;;;;;;;52.25;49.67;;;32.00;44.60;;;;;;4951142;29;20043;-79
2022/08/24 12:23:33;;;;;;;44.08;41.80;;;32.00;44.20;;;;;;4950812;29;20046;-79
2022/08/24 12:26:05;;;;;;;57.45;54.53;;;31.90;44.00;;;;;;4950224;29;20046;-79
2022/08/24 12:28:37;;;;;;;47.28;44.88;;;32.00;44.80;;;;;;4973700;28;20038;-79
2022/08/24 12:31:46;;;;;;;49.67;47.30;;;32.10;44.00;;;;;;4972574;28;20045;-79
2022/08/24 12:34:23;;;;;;;47.05;44.63;;;32.30;43.80;;;;;;4989297;28;20058;-79
2022/08/24 12:36:58;;;;;;;48.00;45.60;;;32.40;44.50;;;;;;4969999;28;20038;-79
2022/08/24 12:39:33;;;;;;;48.28;45.67;;;32.50;44.10;;;;;;4943112;28;20050;-79
2022/08/24 12:42:12;;;;;;;43.60;41.08;;;32.30;43.60;;;;;;4957720;28;20035;-78
2022/08/24 12:44:46;;;;;;;49.50;46.90;;;32.10;44.50;;;;;;4973444;28;20062;-79
2022/08/24 12:47:18;;;;;;;48.83;46.53;;;32.30;43.90;;;;;;4972438;28;20055;-79
2022/08/24 12:49:53;;;;;;;50.75;48.25;;;32.60;44.00;;;;;;4956985;28;20042;-79
2022/08/24 12:52:50;;;;;;;59.75;56.67;;;32.70;43.50;;;;;;5007325;28;20040;-79
2022/08/24 12:55:17;;;;;;;47.75;45.45;;;33.00;42.60;;;;;;5049518;28;20627;-79
2022/08/24 12:58:28;;;;;;;54.88;52.08;;;33.00;41.90;;;;;;5049436;28;20041;-79
2022/08/24 13:00:54;;;;;;;43.28;41.17;;;33.10;42.10;;;;;;5047903;28;20021;-79
2022/08/24 13:03:30;;;;;;;53.97;51.38;;;33.20;42.40;;;;;;5048817;28;20068;-79